Time;durP1;ratioP1;P1;durP2;ratioP2;P2;SDS_P1;SDS_P2;PMS_P1;PMS_P2;Temp;Humidity;BMP_temperature;BMP_pressure;BME280_temperature;BME280_humidity;BME280_pressure;Samples;Min_cycle;Max_cycle;Signal;HPM_P1;HPM_P2
2023/07/28 00:01:27;;;;;;;;;;;17.10;99.90;;;;;;5095263;28;24145;-72
2023/07/28 00:03:55;;;;;;;;;;;17.20;99.90;;;;;;5094744;28;24081;-70
2023/07/28 00:06:22;;;;;;;;;;;17.30;99.90;;;;;;5093942;28;19912;-70
2023/07/28 00:08:48;;;;;;;;;;;17.40;99.90;;;;;;5094655;28;20045;-72
2023/07/28 00:11:16;;;;;;;;;;;17.30;99.90;;;;;;5094752;28;24060;-70
2023/07/28 00:13:43;;;;;;;;;;;17.40;99.90;;;;;;5094485;28;24093;-71
2023/07/28 00:16:10;;;;;;;;;;;17.60;99.90;;;;;;5094215;28;19908;-72
2023/07/28 00:18:37;;;;;;;;;;;17.80;99.90;;;;;;5082564;28;20399;-70
2023/07/28 00:21:05;;;;;;;;;;;17.90;99.90;;;;;;5089541;28;19908;-70
2023/07/28 00:23:32;;;;;;;;;;;18.00;99.90;;;;;;5094295;28;19911;-70
2023/07/28 00:25:58;;;;;;;;;;;18.10;99.90;;;;;;5093719;28;24087;-70
2023/07/28 00:28:26;;;;;;;;;;;18.20;99.90;;;;;;5093646;28;19911;-70
2023/07/28 00:30:52;;;;;;;;;;;18.50;99.90;;;;;;5093851;28;20005;-70
2023/07/28 00:33:19;;;;;;;;;;;18.60;99.90;;;;;;5093776;28;20028;-72
2023/07/28 00:35:46;;;;;;;;;;;18.80;99.90;;;;;;5093449;28;19914;-72
2023/07/28 00:38:13;;;;;;;;;;;19.00;99.90;;;;;;5094532;28;24147;-73
2023/07/28 00:40:40;;;;;;;;;;;19.10;99.90;;;;;;5093852;28;19908;-71
2023/07/28 00:43:07;;;;;;;;;;;19.30;99.90;;;;;;5093684;28;19969;-71
2023/07/28 00:45:34;;;;;;;;;;;19.40;99.90;;;;;;5093871;28;19943;-70
2023/07/28 00:48:01;;;;;;;;;;;19.60;99.90;;;;;;5093450;28;25162;-71
2023/07/28 00:50:28;;;;;;;;;;;19.70;99.90;;;;;;5075054;28;19912;-70
2023/07/28 00:52:55;;;;;;;;;;;19.70;99.90;;;;;;5093283;28;25125;-72
2023/07/28 00:55:22;;;;;;;;;;;20.00;99.90;;;;;;5093617;28;19972;-71
2023/07/28 00:57:50;;;;;;;;;;;19.90;99.90;;;;;;5093398;28;19990;-69
2023/07/28 01:00:17;;;;;;;;;;;19.80;99.90;;;;;;5093312;28;19908;-70
2023/07/28 01:02:44;;;;;;;;;;;20.10;99.90;;;;;;5091890;28;24110;-73
2023/07/28 01:05:11;;;;;;;;;;;20.60;99.90;;;;;;5091343;28;24135;-70
2023/07/28 01:07:56;;;;;;;;;;;21.70;99.90;;;;;;5092289;28;19998;-70
2023/07/28 01:10:26;;;;;;;;;;;22.80;99.90;;;;;;5079548;28;19954;-70
2023/07/28 01:12:53;;;;;;;;;;;23.50;99.90;;;;;;5085299;28;19966;-70
2023/07/28 01:15:20;;;;;;;;;;;23.50;99.90;;;;;;5091377;28;20303;-69
2023/07/28 01:17:47;;;;;;;;;;;23.90;98.10;;;;;;5092147;28;20029;-70
2023/07/28 01:20:14;;;;;;;;;;;24.40;98.20;;;;;;5072563;28;25137;-70
2023/07/28 01:22:41;;;;;;;;;;;24.80;93.40;;;;;;5091773;28;20464;-71
2023/07/28 01:25:26;;;;;;;;;;;25.00;87.50;;;;;;5091917;28;20569;-70
2023/07/28 01:27:53;;;;;;;;;;;24.80;88.20;;;;;;5091108;28;25072;-70
2023/07/28 01:30:21;;;;;;;;;;;25.00;83.70;;;;;;5091870;28;20159;-69
2023/07/28 01:32:48;;;;;;;;;;;24.60;80.50;;;;;;5073432;28;20372;-69
2023/07/28 01:35:15;;;;;;;;;;;24.30;81.10;;;;;;5090234;28;20073;-70
2023/07/28 01:37:42;;;;;;;;;;;23.80;86.00;;;;;;5091493;28;19971;-70
2023/07/28 01:40:09;;;;;;;;;;;24.40;82.20;;;;;;5091922;28;20099;-70
2023/07/28 01:42:36;;;;;;;;;;;24.70;79.10;;;;;;5090771;28;20108;-70
2023/07/28 01:45:03;;;;;;;;;;;25.20;79.60;;;;;;5091231;28;20527;-70
2023/07/28 01:47:30;;;;;;;;;;;25.40;69.40;;;;;;5073012;28;20040;-71
2023/07/28 01:49:57;;;;;;;;;;;25.00;71.70;;;;;;5090393;28;20084;-69
2023/07/28 01:52:23;;;;;;;;;;;25.50;73.10;;;;;;5090893;28;20106;-70
2023/07/28 01:54:51;;;;;;;;;;;25.90;71.60;;;;;;5090441;28;20090;-71
2023/07/28 01:57:18;;;;;;;;;;;26.30;65.40;;;;;;5090136;28;19985;-70
2023/07/28 01:59:45;;;;;;;;;;;26.30;57.80;;;;;;5090439;28;19980;-71
2023/07/28 02:02:13;;;;;;;;;;;25.80;57.70;;;;;;5090512;28;20106;-70
2023/07/28 02:04:39;;;;;;;;;;;25.90;57.10;;;;;;5089829;28;20128;-71
2023/07/28 02:07:06;;;;;;;;;;;25.80;53.50;;;;;;5091189;28;20004;-71
2023/07/28 02:09:34;;;;;;;;;;;26.00;52.00;;;;;;5090800;28;20109;-71
2023/07/28 02:12:01;;;;;;;;;;;26.10;50.40;;;;;;5090064;28;20105;-72
2023/07/28 02:17:32;;;;;;;10.07;1.10;;;26.70;46.60;;;;;;5090244;28;20219;-70
2023/07/28 02:20:01;;;;;;;3.93;1.07;;;26.20;44.60;;;;;;5091773;28;20633;-72
2023/07/28 02:22:28;;;;;;;2.87;0.60;;;26.30;43.60;;;;;;5091620;28;20660;-71
2023/07/28 02:24:56;;;;;;;4.27;0.90;;;26.40;45.20;;;;;;5066354;28;20191;-71
2023/07/28 02:27:24;;;;;;;4.83;0.70;;;27.00;44.10;;;;;;5091485;28;20309;-71
2023/07/28 02:29:52;;;;;;;8.80;0.83;;;26.80;38.80;;;;;;5091535;28;20179;-71
2023/07/28 02:32:20;;;;;;;4.80;0.67;;;26.60;39.40;;;;;;5092495;28;20187;-71
2023/07/28 02:34:48;;;;;;;10.83;1.40;;;26.50;40.00;;;;;;5092769;28;20186;-70
2023/07/28 02:37:16;;;;;;;8.53;1.07;;;26.20;38.60;;;;;;5092987;28;20198;-71
2023/07/28 02:39:44;;;;;;;2.33;0.60;;;26.40;39.00;;;;;;5092805;28;20174;-71
2023/07/28 02:42:13;;;;;;;7.43;0.80;;;26.80;39.10;;;;;;5092906;28;20175;-71
2023/07/28 02:44:41;;;;;;;1.77;0.63;;;26.40;37.10;;;;;;5093075;28;20219;-72
2023/07/28 02:47:09;;;;;;;1.03;0.60;;;26.40;36.20;;;;;;5097000;28;20207;-72
2023/07/28 02:49:36;;;;;;;1.30;0.57;;;26.60;36.10;;;;;;5096882;28;20172;-71
2023/07/28 02:52:04;;;;;;;1.17;0.60;;;26.60;35.10;;;;;;5096776;28;20255;-71
2023/07/28 02:54:32;;;;;;;1.43;0.57;;;26.50;34.50;;;;;;5096903;28;20175;-70
2023/07/28 02:57:00;;;;;;;3.27;1.40;;;26.40;35.60;;;;;;5094059;28;20270;-74
2023/07/28 02:59:27;;;;;;;1.23;0.60;;;26.50;34.90;;;;;;5096981;28;20266;-75
2023/07/28 03:01:57;;;;;;;5.40;1.10;;;26.80;33.70;;;;;;5096790;28;20252;-73
2023/07/28 03:04:25;;;;;;;8.20;1.00;;;26.40;32.70;;;;;;5096312;28;20183;-73
2023/07/28 03:06:52;;;;;;;2.00;0.80;;;25.90;34.50;;;;;;5077984;28;20215;-75
2023/07/28 03:09:20;;;;;;;3.73;0.90;;;26.10;34.10;;;;;;5095888;28;20648;-73
2023/07/28 03:11:48;;;;;;;4.57;0.87;;;26.40;35.70;;;;;;5095831;28;20187;-73
2023/07/28 03:14:17;;;;;;;1.00;0.60;;;26.40;35.30;;;;;;5078783;28;20235;-72
2023/07/28 03:16:44;;;;;;;2.83;0.90;;;26.20;33.30;;;;;;5095947;28;20188;-72
2023/07/28 03:19:12;;;;;;;2.90;0.70;;;26.40;34.30;;;;;;5096328;28;20304;-73
2023/07/28 03:21:40;;;;;;;4.27;0.77;;;26.30;33.60;;;;;;5096346;28;20231;-72
2023/07/28 03:24:08;;;;;;;1.33;0.70;;;26.20;33.20;;;;;;5093973;28;20223;-72
2023/07/28 03:26:36;;;;;;;1.50;0.90;;;26.30;32.70;;;;;;5096249;28;20267;-74
2023/07/28 03:29:04;;;;;;;4.83;0.60;;;26.80;34.00;;;;;;5077874;28;20731;-73
2023/07/28 03:31:35;;;;;;;4.63;0.90;;;27.10;32.80;;;;;;5096122;28;20248;-75
2023/07/28 03:34:04;;;;;;;3.70;0.77;;;27.00;32.30;;;;;;5096597;28;20175;-73
2023/07/28 03:36:32;;;;;;;7.73;1.00;;;26.50;32.10;;;;;;5096232;28;20177;-73
2023/07/28 03:39:00;;;;;;;2.13;0.90;;;26.20;32.60;;;;;;5056392;28;20171;-72
2023/07/28 03:41:28;;;;;;;5.03;1.07;;;26.20;34.30;;;;;;5074042;28;20267;-72
2023/07/28 03:43:56;;;;;;;3.70;0.90;;;26.20;35.60;;;;;;5073743;28;20234;-73
2023/07/28 03:46:23;;;;;;;5.07;1.13;;;26.10;34.20;;;;;;5073570;28;20208;-72
2023/07/28 03:48:51;;;;;;;4.67;1.13;;;25.30;34.70;;;;;;5073982;28;20187;-72
2023/07/28 03:51:20;;;;;;;1.93;0.80;;;24.70;36.70;;;;;;5074703;28;20168;-72
2023/07/28 03:53:47;;;;;;;8.53;0.90;;;24.60;38.30;;;;;;5073513;28;20195;-72
2023/07/28 03:56:15;;;;;;;4.97;0.93;;;24.50;38.50;;;;;;5073968;28;20183;-72
2023/07/28 03:58:43;;;;;;;3.57;1.20;;;24.30;41.40;;;;;;5073822;28;20172;-72
2023/07/28 04:01:10;;;;;;;4.50;0.80;;;24.30;42.60;;;;;;5073458;28;20262;-71
2023/07/28 04:03:38;;;;;;;3.37;0.77;;;24.60;41.20;;;;;;5073576;28;20211;-72
2023/07/28 04:06:12;;;;;;;2.73;1.07;;;25.00;41.50;;;;;;5073574;28;20712;-72
2023/07/28 04:08:40;;;;;;;3.33;0.90;;;25.20;40.80;;;;;;5073149;28;20218;-72
2023/07/28 04:11:09;;;;;;;2.90;0.80;;;25.30;37.40;;;;;;5073254;28;20226;-72
2023/07/28 04:13:37;;;;;;;4.23;1.07;;;25.90;36.80;;;;;;5077350;28;20612;-72
2023/07/28 04:16:05;;;;;;;4.03;1.30;;;26.50;34.50;;;;;;5074798;28;20268;-72
2023/07/28 04:18:33;;;;;;;3.60;1.20;;;26.40;34.90;;;;;;5075233;28;20183;-72
2023/07/28 04:21:01;;;;;;;3.47;1.00;;;26.60;33.70;;;;;;5093716;28;20270;-73
2023/07/28 04:23:28;;;;;;;1.40;0.90;;;26.70;32.80;;;;;;5074040;28;20178;-72
2023/07/28 04:25:56;;;;;;;3.10;0.90;;;26.50;32.60;;;;;;5082625;28;20187;-72
2023/07/28 04:28:24;;;;;;;2.33;0.83;;;26.50;31.40;;;;;;5090604;28;20229;-72
2023/07/28 04:30:52;;;;;;;1.23;0.60;;;26.20;32.90;;;;;;5089653;28;20195;-72
2023/07/28 04:33:19;;;;;;;4.27;0.90;;;26.20;31.80;;;;;;5077344;28;20640;-72
2023/07/28 04:35:47;;;;;;;1.63;0.60;;;26.30;33.40;;;;;;5094249;28;20175;-72
2023/07/28 04:38:15;;;;;;;2.23;0.90;;;25.90;33.10;;;;;;5094728;28;20673;-72
2023/07/28 04:40:43;;;;;;;3.17;0.80;;;25.20;33.00;;;;;;5094723;28;20213;-72
2023/07/28 04:43:10;;;;;;;1.50;0.90;;;24.80;34.90;;;;;;5082317;28;20255;-72
2023/07/28 04:45:38;;;;;;;4.10;1.07;;;24.40;36.00;;;;;;5085175;28;20599;-72
2023/07/28 04:48:06;;;;;;;2.97;0.87;;;24.20;37.40;;;;;;5074508;28;20295;-72
2023/07/28 04:50:34;;;;;;;5.90;0.90;;;24.10;38.00;;;;;;5090282;28;20247;-72
2023/07/28 04:53:02;;;;;;;4.00;0.77;;;23.90;39.60;;;;;;5076324;28;20195;-74
2023/07/28 04:55:30;;;;;;;3.53;0.90;;;23.70;40.70;;;;;;5056528;28;20202;-73
2023/07/28 04:57:58;;;;;;;3.27;0.90;;;23.50;41.10;;;;;;5074236;28;20263;-72
2023/07/28 05:00:26;;;;;;;3.17;0.90;;;23.40;41.70;;;;;;5074313;28;20183;-74
2023/07/28 05:02:54;;;;;;;1.53;0.73;;;23.30;42.50;;;;;;5087542;28;20249;-73
2023/07/28 05:05:21;;;;;;;5.00;0.77;;;23.20;43.50;;;;;;5093919;28;20530;-72
2023/07/28 05:07:49;;;;;;;3.43;0.80;;;23.00;45.00;;;;;;5093859;28;20210;-72
2023/07/28 05:10:17;;;;;;;6.77;1.53;;;22.90;46.70;;;;;;5093768;28;20645;-73
2023/07/28 05:12:45;;;;;;;2.13;1.07;;;22.90;46.60;;;;;;5093970;28;20179;-72
2023/07/28 05:15:14;;;;;;;2.47;0.90;;;22.90;47.40;;;;;;5093771;28;20179;-72
2023/07/28 05:17:42;;;;;;;3.03;0.83;;;23.00;47.80;;;;;;5093635;28;20193;-72
2023/07/28 05:20:10;;;;;;;4.00;1.17;;;23.00;48.60;;;;;;5093899;28;20544;-72
2023/07/28 05:22:38;;;;;;;2.23;1.07;;;23.00;48.30;;;;;;5093373;28;20175;-72
2023/07/28 05:25:07;;;;;;;3.40;0.87;;;23.00;48.90;;;;;;5093754;28;20168;-72
2023/07/28 05:27:35;;;;;;;2.10;1.07;;;23.10;49.00;;;;;;5093522;28;20203;-72
2023/07/28 05:30:02;;;;;;;3.77;1.03;;;23.00;51.00;;;;;;5093601;28;20177;-72
2023/07/28 05:32:30;;;;;;;2.70;1.00;;;23.00;50.40;;;;;;5092778;28;20505;-72
2023/07/28 05:34:58;;;;;;;3.20;0.87;;;22.90;51.10;;;;;;5081822;28;20174;-71
2023/07/28 05:37:26;;;;;;;0.70;0.70;;;22.80;51.30;;;;;;5084575;28;20192;-72
2023/07/28 05:39:53;;;;;;;2.57;1.30;;;22.70;53.10;;;;;;5092119;28;20175;-73
2023/07/28 05:42:21;;;;;;;3.27;0.80;;;22.70;53.60;;;;;;5091460;28;20282;-73
2023/07/28 05:44:49;;;;;;;1.93;0.90;;;22.60;53.60;;;;;;5091473;28;20230;-72
2023/07/28 05:47:17;;;;;;;2.77;1.10;;;22.60;54.10;;;;;;5091701;28;20222;-73
2023/07/28 05:49:45;;;;;;;3.03;0.90;;;22.60;54.80;;;;;;5092025;28;20171;-72
2023/07/28 05:52:12;;;;;;;1.80;1.10;;;22.60;56.40;;;;;;5090891;28;20893;-73
2023/07/28 05:54:40;;;;;;;5.73;1.30;;;22.50;57.20;;;;;;5091974;28;20181;-73
2023/07/28 05:57:08;;;;;;;1.73;0.80;;;22.40;58.70;;;;;;5091530;28;20201;-73
2023/07/28 05:59:36;;;;;;;2.77;1.00;;;22.40;58.80;;;;;;5072959;28;20211;-72
2023/07/28 06:02:04;;;;;;;1.87;0.80;;;22.30;59.60;;;;;;5091595;28;20198;-74
2023/07/28 06:04:31;;;;;;;9.77;1.37;;;22.20;62.00;;;;;;5091713;28;20183;-73
2023/07/28 06:06:59;;;;;;;3.30;1.00;;;22.20;62.30;;;;;;5091276;28;20608;-72
2023/07/28 06:09:27;;;;;;;1.33;0.80;;;22.10;63.60;;;;;;5091611;28;20183;-74
2023/07/28 06:11:55;;;;;;;3.97;0.90;;;22.10;63.60;;;;;;5091020;28;20240;-74
2023/07/28 06:14:22;;;;;;;2.47;0.80;;;22.00;67.20;;;;;;5091406;28;20267;-74
2023/07/28 06:16:50;;;;;;;2.50;0.93;;;21.90;71.40;;;;;;5091403;28;20191;-74
2023/07/28 06:19:23;;;;;;;2.30;0.80;;;21.80;69.90;;;;;;5092690;28;20178;-74
2023/07/28 06:21:51;;;;;;;2.80;0.70;;;21.70;71.00;;;;;;5086651;28;20658;-74
2023/07/28 06:24:20;;;;;;;2.63;1.10;;;21.70;71.90;;;;;;5091175;28;20273;-74
2023/07/28 06:26:47;;;;;;;1.77;1.13;;;21.60;75.80;;;;;;5096137;28;20575;-74
2023/07/28 06:29:15;;;;;;;4.30;1.33;;;21.60;76.40;;;;;;5095704;28;20175;-74
2023/07/28 06:31:43;;;;;;;4.40;0.90;;;21.50;77.30;;;;;;5095729;28;20286;-73
2023/07/28 06:34:11;;;;;;;1.93;0.90;;;21.40;81.00;;;;;;5095248;28;20198;-74
2023/07/28 06:36:39;;;;;;;1.67;0.90;;;21.30;82.70;;;;;;5095094;28;20184;-74
2023/07/28 06:39:07;;;;;;;2.80;0.97;;;21.30;85.70;;;;;;5095585;28;20228;-74
2023/07/28 06:41:35;;;;;;;3.97;1.03;;;21.10;90.50;;;;;;5093889;28;20178;-74
2023/07/28 06:44:03;;;;;;;2.53;1.20;;;21.00;91.80;;;;;;5083986;28;20613;-75
2023/07/28 06:46:30;;;;;;;3.90;0.77;;;21.00;92.60;;;;;;5075201;28;20941;-75
2023/07/28 06:48:59;;;;;;;1.27;0.93;;;20.90;93.00;;;;;;5093858;28;20259;-76
2023/07/28 06:51:27;;;;;;;2.17;0.87;;;20.80;94.30;;;;;;5095128;28;20305;-73
2023/07/28 06:53:54;;;;;;;1.77;0.93;;;20.80;93.80;;;;;;5077194;28;20702;-74
2023/07/28 06:56:22;;;;;;;7.33;1.23;;;20.80;94.60;;;;;;5095534;28;20234;-74
2023/07/28 06:58:50;;;;;;;3.20;0.87;;;20.70;95.60;;;;;;5089720;28;20189;-73
2023/07/28 07:01:18;;;;;;;3.87;0.80;;;20.60;97.30;;;;;;5095278;28;20190;-72
2023/07/28 07:03:45;;;;;;;2.53;1.10;;;20.50;97.70;;;;;;5095013;28;20774;-76
2023/07/28 07:06:13;;;;;;;9.07;1.33;;;20.40;99.50;;;;;;5076552;28;20183;-73
2023/07/28 07:08:41;;;;;;;3.77;1.00;;;20.30;99.90;;;;;;5095171;28;20175;-72
2023/07/28 07:11:09;;;;;;;3.63;0.90;;;20.20;99.90;;;;;;5095141;28;20169;-73
2023/07/28 07:13:36;;;;;;;2.77;1.00;;;20.10;99.90;;;;;;5094033;28;20216;-72
2023/07/28 07:16:06;;;;;;;1.80;0.93;;;20.00;99.90;;;;;;5094380;28;20234;-73
2023/07/28 07:18:34;;;;;;;5.40;1.23;;;19.80;99.90;;;;;;5089856;28;20196;-73
2023/07/28 07:21:05;;;;;;;3.90;1.03;;;19.70;99.90;;;;;;5094195;28;20172;-73
2023/07/28 07:23:33;;;;;;;3.63;1.10;;;19.50;99.90;;;;;;5094588;28;20170;-73
2023/07/28 07:26:01;;;;;;;5.00;1.47;;;19.40;99.90;;;;;;5075169;28;20183;-73
2023/07/28 07:28:29;;;;;;;2.73;1.30;;;19.30;99.90;;;;;;5073901;28;20185;-73
2023/07/28 07:30:57;;;;;;;2.67;1.20;;;19.20;99.90;;;;;;5089235;28;20183;-75
2023/07/28 07:33:25;;;;;;;4.17;1.30;;;19.10;99.90;;;;;;5094446;28;20230;-73
2023/07/28 07:35:53;;;;;;;5.93;1.43;;;18.90;99.90;;;;;;5094214;28;20172;-74
2023/07/28 07:38:21;;;;;;;3.80;1.20;;;18.70;99.90;;;;;;5076066;28;20250;-73
2023/07/28 07:40:49;;;;;;;3.37;1.33;;;18.60;99.90;;;;;;5094686;28;20263;-73
2023/07/28 07:43:20;;;;;;;1.67;1.10;;;18.50;99.90;;;;;;5094227;28;20229;-73
2023/07/28 07:45:50;;;;;;;2.90;1.03;;;18.30;99.90;;;;;;5086803;28;20184;-72
2023/07/28 07:48:17;;;;;;;2.63;1.33;;;18.10;99.90;;;;;;5083852;28;20212;-72
2023/07/28 07:50:45;;;;;;;6.27;1.17;;;17.90;99.90;;;;;;5075704;28;20168;-72
2023/07/28 07:53:13;;;;;;;4.03;1.10;;;17.80;99.90;;;;;;5084125;28;20191;-72
2023/07/28 07:55:41;;;;;;;1.53;1.10;;;17.60;99.90;;;;;;5085087;28;20191;-73
2023/07/28 07:58:09;;;;;;;3.47;1.50;;;17.40;99.90;;;;;;5067718;28;20258;-73
2023/07/28 08:00:38;;;;;;;2.63;1.10;;;17.30;99.90;;;;;;5089461;28;20250;-73
2023/07/28 08:03:06;;;;;;;5.23;1.07;;;17.20;99.90;;;;;;5091609;28;20648;-73
2023/07/28 08:05:34;;;;;;;3.23;1.50;;;17.10;99.90;;;;;;5096043;28;20232;-74
2023/07/28 08:08:02;;;;;;;2.97;1.20;;;16.90;99.90;;;;;;5070084;28;20215;-72
2023/07/28 08:10:30;;;;;;;3.17;1.17;;;16.80;99.90;;;;;;5082207;28;20187;-72
2023/07/28 08:12:58;;;;;;;1.87;1.30;;;16.80;99.90;;;;;;5074149;28;20652;-72
2023/07/28 08:15:26;;;;;;;1.93;1.30;;;16.70;99.90;;;;;;5076154;28;20191;-73
2023/07/28 08:17:53;;;;;;;5.00;1.57;;;16.60;99.90;;;;;;5081942;28;20179;-72
2023/07/28 08:20:21;;;;;;;7.63;1.80;;;16.70;99.90;;;;;;5077855;28;20237;-72
2023/07/28 08:22:49;;;;;;;7.40;1.73;;;16.60;99.90;;;;;;5076549;28;20694;-72
2023/07/28 08:25:17;;;;;;;9.50;3.13;;;16.50;99.90;;;;;;5091064;28;20260;-72
2023/07/28 08:27:44;;;;;;;8.57;3.00;;;16.60;99.90;;;;;;5093827;28;20233;-72
2023/07/28 08:30:15;;;;;;;7.40;2.63;;;16.60;99.90;;;;;;5093395;28;20175;-73
2023/07/28 08:32:43;;;;;;;5.23;2.63;;;16.60;99.90;;;;;;5090507;28;20192;-73
2023/07/28 08:35:11;;;;;;;5.73;2.60;;;16.50;99.90;;;;;;5079007;28;20180;-73
2023/07/28 08:37:39;;;;;;;6.00;3.30;;;16.40;99.90;;;;;;5072982;28;20191;-73
2023/07/28 08:40:08;;;;;;;5.93;2.70;;;16.30;99.90;;;;;;5073230;28;20172;-73
2023/07/28 08:42:40;;;;;;;5.40;2.70;;;16.20;99.90;;;;;;5054038;28;20643;-73
2023/07/28 08:45:08;;;;;;;5.67;2.80;;;16.10;99.90;;;;;;5077594;28;20567;-72
2023/07/28 08:47:37;;;;;;;4.77;2.37;;;16.00;99.90;;;;;;5092806;28;20342;-73
2023/07/28 08:50:06;;;;;;;5.13;2.40;;;15.90;99.90;;;;;;5092863;28;20242;-73
2023/07/28 08:52:34;;;;;;;4.80;2.47;;;15.90;99.90;;;;;;5092030;28;20168;-72
2023/07/28 08:55:02;;;;;;;5.50;2.30;;;15.80;99.90;;;;;;5092602;28;20174;-73
2023/07/28 08:57:30;;;;;;;32.27;17.57;;;15.80;99.90;;;;;;5092476;28;20179;-73
2023/07/28 08:59:58;;;;;;;31.30;16.33;;;15.80;99.90;;;;;;5092022;28;20175;-72
2023/07/28 09:02:25;;;;;;;38.50;20.60;;;15.80;99.90;;;;;;5093471;28;20254;-72
2023/07/28 09:04:53;;;;;;;32.67;17.27;;;15.80;99.90;;;;;;5093677;28;20180;-73
2023/07/28 09:07:21;;;;;;;28.37;15.43;;;15.80;99.90;;;;;;5093924;28;20671;-73
2023/07/28 09:09:49;;;;;;;15.33;8.73;;;15.80;99.90;;;;;;5093909;28;20225;-73
2023/07/28 09:12:17;;;;;;;14.93;8.43;;;15.70;99.90;;;;;;5093593;28;20721;-73
2023/07/28 09:14:46;;;;;;;15.13;7.33;;;15.60;99.90;;;;;;5093918;28;20217;-73
2023/07/28 09:17:14;;;;;;;13.60;6.30;;;15.60;99.90;;;;;;5093559;28;20191;-73
2023/07/28 09:19:53;;;;;;;11.87;7.13;;;15.40;99.90;;;;;;5093769;28;20271;-73
2023/07/28 09:22:21;;;;;;;15.30;7.20;;;15.30;99.90;;;;;;5075805;28;20186;-73
2023/07/28 09:24:50;;;;;;;12.07;6.47;;;15.30;99.90;;;;;;5093319;28;20178;-73
2023/07/28 09:27:22;;;;;;;13.43;6.97;;;15.30;99.90;;;;;;5091253;28;20675;-73
2023/07/28 09:29:57;;;;;;;11.23;6.53;;;15.30;99.90;;;;;;5093512;28;20191;-72
2023/07/28 09:32:36;;;;;;;13.40;6.73;;;15.20;99.90;;;;;;5093397;28;20178;-73
2023/07/28 09:35:09;;;;;;;9.13;6.13;;;15.10;99.90;;;;;;5093388;28;20174;-73
2023/07/28 09:37:42;;;;;;;10.87;4.87;;;15.00;99.90;;;;;;5079312;28;20179;-72
2023/07/28 09:40:15;;;;;;;10.97;4.30;;;14.90;99.90;;;;;;5067167;28;20278;-73
2023/07/28 09:42:49;;;;;;;15.30;5.10;;;14.80;99.90;;;;;;5091356;28;20202;-73
2023/07/28 09:45:18;;;;;;;7.80;4.30;;;14.70;99.90;;;;;;5091030;28;20187;-73
2023/07/28 09:47:48;;;;;;;8.63;4.70;;;14.70;99.90;;;;;;5087766;28;20808;-73
2023/07/28 09:50:22;;;;;;;11.10;4.63;;;14.70;99.90;;;;;;5091723;28;20179;-72
2023/07/28 09:52:54;;;;;;;8.87;5.00;;;14.60;99.90;;;;;;5091116;28;20171;-72
2023/07/28 09:55:22;;;;;;;12.33;4.00;;;14.60;99.90;;;;;;5091042;28;20649;-72
2023/07/28 09:57:55;;;;;;;5.43;2.93;;;14.60;99.90;;;;;;5091212;28;20178;-72
2023/07/28 10:00:24;;;;;;;3.70;2.50;;;14.60;99.90;;;;;;5091218;28;20189;-72
2023/07/28 10:02:53;;;;;;;6.37;3.20;;;14.50;99.90;;;;;;5091087;28;20179;-72
2023/07/28 10:05:21;;;;;;;7.20;3.30;;;14.40;99.90;;;;;;5091368;28;20183;-72
2023/07/28 10:07:49;;;;;;;7.20;2.93;;;14.40;99.90;;;;;;5091270;28;20211;-71
2023/07/28 10:10:18;;;;;;;7.60;3.17;;;14.40;99.90;;;;;;5090723;28;20190;-72
2023/07/28 10:12:55;;;;;;;8.80;4.17;;;14.40;99.90;;;;;;5090900;28;20194;-71
2023/07/28 10:15:30;;;;;;;7.30;3.73;;;14.40;99.90;;;;;;5087833;28;20186;-73
2023/07/28 10:17:59;;;;;;;4.90;3.30;;;14.50;99.90;;;;;;5072731;28;20214;-70
2023/07/28 10:20:38;;;;;;;5.10;3.20;;;14.50;99.90;;;;;;5091084;28;20172;-72
2023/07/28 10:23:22;;;;;;;8.67;3.50;;;14.50;99.90;;;;;;5090653;28;20186;-73
2023/07/28 10:26:07;;;;;;;6.50;3.90;;;14.50;99.90;;;;;;5091138;28;20208;-73
2023/07/28 10:28:43;;;;;;;9.53;3.90;;;14.60;99.90;;;;;;5088757;28;20189;-72
2023/07/28 10:31:12;;;;;;;5.13;3.47;;;14.60;99.90;;;;;;5061625;28;20273;-73
2023/07/28 10:33:41;;;;;;;5.00;3.57;;;14.60;99.90;;;;;;5090501;28;20185;-73
2023/07/28 10:36:25;;;;;;;4.57;3.20;;;14.60;99.90;;;;;;5091333;28;20173;-73
2023/07/28 10:39:23;;;;;;;8.73;3.70;;;14.60;99.90;;;;;;5090263;28;20210;-73
2023/07/28 10:42:02;;;;;;;10.17;4.50;;;14.70;99.90;;;;;;5089996;28;20202;-72
2023/07/28 10:44:30;;;;;;;9.57;4.03;;;14.70;99.90;;;;;;5090840;28;20233;-71
2023/07/28 10:46:58;;;;;;;7.50;3.97;;;14.80;99.90;;;;;;5090422;28;20214;-72
2023/07/28 10:49:26;;;;;;;4.40;2.80;;;14.80;99.90;;;;;;5091435;28;20175;-73
2023/07/28 10:51:55;;;;;;;11.23;4.00;;;14.80;99.90;;;;;;5087442;28;20225;-74
2023/07/28 10:54:23;;;;;;;5.50;3.10;;;14.90;99.90;;;;;;5076182;28;20187;-73
2023/07/28 10:56:50;;;;;;;8.27;3.40;;;14.90;99.90;;;;;;5072446;28;20191;-73
2023/07/28 10:59:18;;;;;;;6.47;3.53;;;15.00;99.90;;;;;;5072117;28;20214;-73
2023/07/28 11:01:47;;;;;;;9.00;4.60;;;15.00;99.90;;;;;;5081670;28;20214;-73
2023/07/28 11:04:15;;;;;;;8.43;4.10;;;15.10;99.90;;;;;;5080695;28;20190;-73
2023/07/28 11:06:44;;;;;;;11.73;3.53;;;15.20;99.90;;;;;;5089255;28;20203;-73
2023/07/28 11:09:14;;;;;;;5.73;3.20;;;15.30;99.90;;;;;;5085402;28;20248;-72
2023/07/28 11:11:42;;;;;;;5.87;3.70;;;15.30;99.90;;;;;;5095891;28;20259;-72
2023/07/28 11:14:11;;;;;;;4.90;3.40;;;15.30;99.90;;;;;;5077190;28;20193;-71
2023/07/28 11:16:41;;;;;;;9.43;3.70;;;15.30;99.90;;;;;;5095967;28;20626;-72
2023/07/28 11:19:19;;;;;;;6.47;4.37;;;15.30;99.90;;;;;;5095631;28;20168;-73
2023/07/28 11:21:51;;;;;;;9.87;4.63;;;15.30;99.90;;;;;;5095827;28;20193;-71
2023/07/28 11:24:23;;;;;;;8.57;3.80;;;15.30;99.90;;;;;;5095828;28;20189;-73
2023/07/28 11:26:52;;;;;;;10.33;3.83;;;15.30;99.90;;;;;;5076766;28;20215;-71
2023/07/28 11:29:23;;;;;;;9.07;4.33;;;15.30;99.90;;;;;;5095419;28;20183;-71
2023/07/28 11:31:51;;;;;;;7.13;4.77;;;15.30;99.90;;;;;;5095130;28;20678;-71
2023/07/28 11:34:19;;;;;;;8.53;4.50;;;15.20;99.90;;;;;;5095852;28;20176;-72
2023/07/28 11:36:48;;;;;;;8.83;4.60;;;15.20;99.90;;;;;;5094760;28;20526;-72
2023/07/28 11:39:16;;;;;;;10.47;4.70;;;15.20;99.90;;;;;;5095413;28;20181;-73
2023/07/28 11:41:47;;;;;;;8.53;4.27;;;15.10;99.90;;;;;;5095365;28;20252;-72
2023/07/28 11:44:15;;;;;;;6.93;4.87;;;15.20;99.90;;;;;;5094772;28;20257;-73
2023/07/28 11:46:44;;;;;;;8.10;4.63;;;15.20;99.90;;;;;;5094952;28;20202;-72
2023/07/28 11:49:18;;;;;;;9.00;5.10;;;15.20;99.90;;;;;;5095063;28;20183;-71
2023/07/28 11:51:48;;;;;;;8.40;4.83;;;15.20;99.90;;;;;;5094651;28;20191;-72
2023/07/28 11:54:21;;;;;;;7.80;5.47;;;15.20;99.90;;;;;;5095421;28;20259;-71
2023/07/28 11:56:50;;;;;;;15.13;6.50;;;15.20;99.90;;;;;;5095047;28;20194;-72
2023/07/28 11:59:20;;;;;;;19.90;11.63;;;15.10;99.90;;;;;;5094675;28;20175;-72
2023/07/28 12:01:56;;;;;;;11.17;8.17;;;15.10;99.90;;;;;;5095106;28;20179;-73
2023/07/28 12:04:26;;;;;;;13.57;5.23;;;15.00;99.90;;;;;;5094716;28;20523;-73
2023/07/28 12:07:14;;;;;;;11.10;5.17;;;14.90;99.90;;;;;;5094744;28;20284;-72
2023/07/28 12:09:51;;;;;;;8.60;4.93;;;14.90;99.90;;;;;;5094683;28;20274;-73
2023/07/28 12:12:34;;;;;;;6.40;3.83;;;14.80;99.90;;;;;;5094467;28;20659;-72
2023/07/28 12:15:18;;;;;;;9.53;4.30;;;14.70;99.90;;;;;;5094646;28;20177;-73
2023/07/28 12:18:19;;;;;;;6.53;3.80;;;14.60;99.90;;;;;;5094334;28;20551;-71
2023/07/28 12:20:48;;;;;;;6.87;4.30;;;14.50;99.90;;;;;;5094471;28;20268;-71
2023/07/28 12:23:21;;;;;;;7.20;4.27;;;14.40;99.90;;;;;;5093930;28;20193;-73
2023/07/28 12:25:53;;;;;;;6.93;4.37;;;14.40;99.90;;;;;;5094481;28;20188;-71
2023/07/28 12:28:21;;;;;;;7.97;4.00;;;14.30;99.90;;;;;;5094144;28;20217;-73
2023/07/28 12:30:52;;;;;;;4.33;3.63;;;14.20;99.90;;;;;;5094463;28;20711;-73
2023/07/28 12:33:20;;;;;;;6.13;3.93;;;14.10;99.90;;;;;;5094359;28;20176;-73
2023/07/28 12:35:48;;;;;;;7.60;4.60;;;14.00;99.90;;;;;;5094381;28;20549;-72
2023/07/28 12:38:16;;;;;;;8.70;3.77;;;14.00;99.90;;;;;;5094182;28;20185;-72
2023/07/28 12:40:43;;;;;;;5.87;3.83;;;13.90;99.90;;;;;;5093023;28;20248;-72
2023/07/28 12:43:11;;;;;;;7.97;3.33;;;13.90;99.90;;;;;;5093912;28;20216;-73
2023/07/28 12:45:39;;;;;;;8.87;3.87;;;13.90;99.90;;;;;;5093873;28;20186;-72
2023/07/28 12:48:06;;;;;;;5.20;3.87;;;13.80;99.90;;;;;;5094081;28;20783;-70
2023/07/28 12:50:34;;;;;;;7.40;3.50;;;13.90;99.90;;;;;;5087569;28;20198;-70
2023/07/28 12:53:01;;;;;;;6.70;3.70;;;13.90;99.90;;;;;;5084610;28;20709;-70
2023/07/28 12:55:29;;;;;;;9.93;4.00;;;13.90;99.90;;;;;;5084982;28;20181;-70
2023/07/28 12:57:58;;;;;;;5.93;3.80;;;13.90;99.90;;;;;;5082011;28;20194;-72
2023/07/28 13:00:25;;;;;;;4.93;3.57;;;13.80;99.90;;;;;;5092168;28;20241;-70
2023/07/28 13:02:53;;;;;;;6.53;3.67;;;13.80;99.90;;;;;;5075494;28;20229;-71
2023/07/28 13:05:20;;;;;;;7.67;3.20;;;13.80;99.90;;;;;;5093939;28;20184;-71
2023/07/28 13:07:47;;;;;;;5.50;3.77;;;13.80;99.90;;;;;;5075331;28;20222;-71
2023/07/28 13:10:15;;;;;;;7.67;3.40;;;13.70;99.90;;;;;;5093838;28;20181;-71
2023/07/28 13:12:42;;;;;;;5.97;3.43;;;13.70;99.90;;;;;;5093544;28;20205;-71